sensor_id;sensor_type;location;lat;lon;timestamp;temperature;humidity
21121;DHT22;12519;43.318;21.898;2023-05-03T00:04:15;18.7;61.0
21121;DHT22;12519;43.318;21.898;2023-05-03T00:08:52;18.7;61.0
21121;DHT22;12519;43.318;21.898;2023-05-03T00:13:29;18.7;62.0
21121;DHT22;12519;43.318;21.898;2023-05-03T00:18:06;18.7;62.0
21121;DHT22;12519;43.318;21.898;2023-05-03T00:22:42;18.8;63.0
21121;DHT22;12519;43.318;21.898;2023-05-03T00:27:19;18.8;63.0
21121;DHT22;12519;43.318;21.898;2023-05-03T00:31:57;18.8;63.0
21121;DHT22;12519;43.318;21.898;2023-05-03T00:36:34;18.8;63.0
21121;DHT22;12519;43.318;21.898;2023-05-03T00:41:11;18.6;65.0
21121;DHT22;12519;43.318;21.898;2023-05-03T00:45:48;18.6;65.0
21121;DHT22;12519;43.318;21.898;2023-05-03T00:50:26;18.5;66.0
21121;DHT22;12519;43.318;21.898;2023-05-03T00:55:08;18.5;66.0
21121;DHT22;12519;43.318;21.898;2023-05-03T00:59:47;18.4;68.0
21121;DHT22;12519;43.318;21.898;2023-05-03T01:04:24;18.4;68.0
21121;DHT22;12519;43.318;21.898;2023-05-03T01:09:16;18.2;69.0
21121;DHT22;12519;43.318;21.898;2023-05-03T01:14:40;18.2;69.0
21121;DHT22;12519;43.318;21.898;2023-05-03T01:20:12;18.0;69.0
21121;DHT22;12519;43.318;21.898;2023-05-03T01:25:07;18.0;69.0
21121;DHT22;12519;43.318;21.898;2023-05-03T01:29:48;17.9;69.0
21121;DHT22;12519;43.318;21.898;2023-05-03T01:34:49;17.9;69.0
21121;DHT22;12519;43.318;21.898;2023-05-03T01:40:00;17.8;70.0
21121;DHT22;12519;43.318;21.898;2023-05-03T01:44:49;17.8;70.0
21121;DHT22;12519;43.318;21.898;2023-05-03T01:49:30;17.8;70.0
21121;DHT22;12519;43.318;21.898;2023-05-03T01:54:07;17.8;70.0
21121;DHT22;12519;43.318;21.898;2023-05-03T01:58:44;17.8;70.0
21121;DHT22;12519;43.318;21.898;2023-05-03T02:03:21;17.6;70.0
21121;DHT22;12519;43.318;21.898;2023-05-03T02:07:57;17.6;70.0
21121;DHT22;12519;43.318;21.898;2023-05-03T02:12:33;17.3;70.0
21121;DHT22;12519;43.318;21.898;2023-05-03T02:17:10;17.3;70.0
21121;DHT22;12519;43.318;21.898;2023-05-03T02:21:46;17.3;70.0
21121;DHT22;12519;43.318;21.898;2023-05-03T02:26:23;17.3;70.0
21121;DHT22;12519;43.318;21.898;2023-05-03T02:30:59;17.3;70.0
21121;DHT22;12519;43.318;21.898;2023-05-03T02:35:36;17.3;70.0
21121;DHT22;12519;43.318;21.898;2023-05-03T02:40:12;17.3;70.0
21121;DHT22;12519;43.318;21.898;2023-05-03T02:44:49;17.3;70.0
21121;DHT22;12519;43.318;21.898;2023-05-03T02:49:26;17.3;70.0
21121;DHT22;12519;43.318;21.898;2023-05-03T02:54:03;17.3;70.0
21121;DHT22;12519;43.318;21.898;2023-05-03T02:58:39;17.3;70.0
21121;DHT22;12519;43.318;21.898;2023-05-03T03:03:16;17.3;68.0
21121;DHT22;12519;43.318;21.898;2023-05-03T03:07:53;17.3;68.0
21121;DHT22;12519;43.318;21.898;2023-05-03T03:12:30;17.3;67.0
21121;DHT22;12519;43.318;21.898;2023-05-03T03:17:07;17.3;67.0
21121;DHT22;12519;43.318;21.898;2023-05-03T03:21:44;17.4;66.0
21121;DHT22;12519;43.318;21.898;2023-05-03T03:26:21;17.4;66.0
21121;DHT22;12519;43.318;21.898;2023-05-03T03:30:58;17.4;65.0
21121;DHT22;12519;43.318;21.898;2023-05-03T03:35:36;17.4;65.0
21121;DHT22;12519;43.318;21.898;2023-05-03T03:40:14;17.9;68.0
21121;DHT22;12519;43.318;21.898;2023-05-03T03:44:51;17.9;68.0
21121;DHT22;12519;43.318;21.898;2023-05-03T03:49:28;18.4;70.0
21121;DHT22;12519;43.318;21.898;2023-05-03T03:54:05;18.4;70.0
21121;DHT22;12519;43.318;21.898;2023-05-03T03:58:42;18.4;70.0
21121;DHT22;12519;43.318;21.898;2023-05-03T04:03:19;18.4;66.0
21121;DHT22;12519;43.318;21.898;2023-05-03T04:07:56;18.4;66.0
21121;DHT22;12519;43.318;21.898;2023-05-03T04:12:33;18.5;62.0
21121;DHT22;12519;43.318;21.898;2023-05-03T04:17:10;18.5;62.0
21121;DHT22;12519;43.318;21.898;2023-05-03T04:21:47;17.9;61.0
21121;DHT22;12519;43.318;21.898;2023-05-03T04:26:24;17.9;61.0
21121;DHT22;12519;43.318;21.898;2023-05-03T04:31:01;17.3;61.0
21121;DHT22;12519;43.318;21.898;2023-05-03T04:35:38;17.3;61.0
21121;DHT22;12519;43.318;21.898;2023-05-03T04:40:15;17.2;61.0
21121;DHT22;12519;43.318;21.898;2023-05-03T04:44:52;17.2;61.0
21121;DHT22;12519;43.318;21.898;2023-05-03T04:49:29;17.2;61.0
21121;DHT22;12519;43.318;21.898;2023-05-03T04:54:05;17.2;62.0
21121;DHT22;12519;43.318;21.898;2023-05-03T04:58:42;17.2;62.0
21121;DHT22;12519;43.318;21.898;2023-05-03T05:03:18;17.2;62.0
21121;DHT22;12519;43.318;21.898;2023-05-03T05:07:55;17.2;62.0
21121;DHT22;12519;43.318;21.898;2023-05-03T05:12:31;17.1;62.0
21121;DHT22;12519;43.318;21.898;2023-05-03T05:17:08;17.1;62.0
21121;DHT22;12519;43.318;21.898;2023-05-03T05:21:45;17.1;62.0
21121;DHT22;12519;43.318;21.898;2023-05-03T05:26:21;17.1;62.0
21121;DHT22;12519;43.318;21.898;2023-05-03T05:30:58;17.1;62.0
21121;DHT22;12519;43.318;21.898;2023-05-03T05:35:35;17.1;62.0
21121;DHT22;12519;43.318;21.898;2023-05-03T05:40:13;17.5;65.0
21121;DHT22;12519;43.318;21.898;2023-05-03T05:44:50;17.5;65.0
21121;DHT22;12519;43.318;21.898;2023-05-03T05:49:28;17.5;65.0
21121;DHT22;12519;43.318;21.898;2023-05-03T05:54:05;17.9;68.0
21121;DHT22;12519;43.318;21.898;2023-05-03T05:58:42;17.9;68.0
21121;DHT22;12519;43.318;21.898;2023-05-03T06:03:18;17.8;65.0
21121;DHT22;12519;43.318;21.898;2023-05-03T06:07:55;17.8;65.0
21121;DHT22;12519;43.318;21.898;2023-05-03T06:12:31;17.8;62.0
21121;DHT22;12519;43.318;21.898;2023-05-03T06:17:08;17.8;62.0
21121;DHT22;12519;43.318;21.898;2023-05-03T06:21:45;17.6;62.0
21121;DHT22;12519;43.318;21.898;2023-05-03T06:26:22;17.6;62.0
21121;DHT22;12519;43.318;21.898;2023-05-03T06:30:59;17.5;62.0
21121;DHT22;12519;43.318;21.898;2023-05-03T06:35:36;17.5;62.0
21121;DHT22;12519;43.318;21.898;2023-05-03T06:40:13;17.5;62.0
21121;DHT22;12519;43.318;21.898;2023-05-03T06:44:50;17.5;62.0
21121;DHT22;12519;43.318;21.898;2023-05-03T06:49:27;17.5;62.0
21121;DHT22;12519;43.318;21.898;2023-05-03T06:54:04;17.5;62.0
21121;DHT22;12519;43.318;21.898;2023-05-03T06:58:41;17.5;62.0
21121;DHT22;12519;43.318;21.898;2023-05-03T07:03:18;17.4;62.0
21121;DHT22;12519;43.318;21.898;2023-05-03T07:07:55;17.4;62.0
21121;DHT22;12519;43.318;21.898;2023-05-03T07:12:32;17.3;62.0
21121;DHT22;12519;43.318;21.898;2023-05-03T07:17:09;17.3;62.0
21121;DHT22;12519;43.318;21.898;2023-05-03T07:21:45;17.4;62.0
21121;DHT22;12519;43.318;21.898;2023-05-03T07:26:22;17.4;62.0
21121;DHT22;12519;43.318;21.898;2023-05-03T07:30:59;17.5;62.0
21121;DHT22;12519;43.318;21.898;2023-05-03T07:35:37;17.5;62.0
21121;DHT22;12519;43.318;21.898;2023-05-03T07:40:14;17.8;64.0
21121;DHT22;12519;43.318;21.898;2023-05-03T07:44:51;17.8;64.0
21121;DHT22;12519;43.318;21.898;2023-05-03T07:49:28;17.8;64.0
21121;DHT22;12519;43.318;21.898;2023-05-03T07:54:05;18.1;65.0
21121;DHT22;12519;43.318;21.898;2023-05-03T07:58:42;18.1;65.0
21121;DHT22;12519;43.318;21.898;2023-05-03T08:03:18;19.0;66.0
21121;DHT22;12519;43.318;21.898;2023-05-03T08:07:55;19.0;66.0
21121;DHT22;12519;43.318;21.898;2023-05-03T08:12:31;19.8;67.0
21121;DHT22;12519;43.318;21.898;2023-05-03T08:17:08;19.8;67.0
21121;DHT22;12519;43.318;21.898;2023-05-03T08:21:45;19.5;66.0
21121;DHT22;12519;43.318;21.898;2023-05-03T08:26:22;19.5;66.0
21121;DHT22;12519;43.318;21.898;2023-05-03T08:30:59;19.2;65.0
21121;DHT22;12519;43.318;21.898;2023-05-03T08:35:36;19.2;65.0
21121;DHT22;12519;43.318;21.898;2023-05-03T08:40:13;18.4;66.0
21121;DHT22;12519;43.318;21.898;2023-05-03T08:44:50;18.4;66.0
21121;DHT22;12519;43.318;21.898;2023-05-03T08:49:30;18.4;66.0
21121;DHT22;12519;43.318;21.898;2023-05-03T08:54:10;17.7;66.0
21121;DHT22;12519;43.318;21.898;2023-05-03T08:58:46;17.7;66.0
21121;DHT22;12519;43.318;21.898;2023-05-03T09:03:23;17.6;67.0
21121;DHT22;12519;43.318;21.898;2023-05-03T09:08:03;17.6;67.0
21121;DHT22;12519;43.318;21.898;2023-05-03T09:12:45;17.5;68.0
21121;DHT22;12519;43.318;21.898;2023-05-03T09:17:22;17.5;68.0
21121;DHT22;12519;43.318;21.898;2023-05-03T09:22:06;17.8;68.0
21121;DHT22;12519;43.318;21.898;2023-05-03T09:26:48;17.8;68.0
21121;DHT22;12519;43.318;21.898;2023-05-03T09:31:32;18.0;68.0
21121;DHT22;12519;43.318;21.898;2023-05-03T09:36:12;18.0;68.0
21121;DHT22;12519;43.318;21.898;2023-05-03T09:40:49;18.0;67.0
21121;DHT22;12519;43.318;21.898;2023-05-03T09:45:26;18.0;67.0
21121;DHT22;12519;43.318;21.898;2023-05-03T09:50:06;18.0;67.0
21121;DHT22;12519;43.318;21.898;2023-05-03T09:54:46;18.1;67.0
21121;DHT22;12519;43.318;21.898;2023-05-03T09:59:26;18.1;67.0
21121;DHT22;12519;43.318;21.898;2023-05-03T10:04:05;18.5;67.0
21121;DHT22;12519;43.318;21.898;2023-05-03T10:09:02;18.5;67.0
21121;DHT22;12519;43.318;21.898;2023-05-03T10:13:47;18.8;66.0
21121;DHT22;12519;43.318;21.898;2023-05-03T10:18:31;18.8;66.0
21121;DHT22;12519;43.318;21.898;2023-05-03T10:23:13;18.8;66.0
21121;DHT22;12519;43.318;21.898;2023-05-03T10:27:50;18.8;66.0
21121;DHT22;12519;43.318;21.898;2023-05-03T10:32:33;18.8;66.0
21121;DHT22;12519;43.318;21.898;2023-05-03T10:37:12;18.8;66.0
21121;DHT22;12519;43.318;21.898;2023-05-03T10:42:02;19.0;65.0
21121;DHT22;12519;43.318;21.898;2023-05-03T10:46:43;19.0;65.0
21121;DHT22;12519;43.318;21.898;2023-05-03T10:51:35;19.1;65.0
21121;DHT22;12519;43.318;21.898;2023-05-03T10:56:13;19.1;65.0
21121;DHT22;12519;43.318;21.898;2023-05-03T11:00:50;19.6;64.0
21121;DHT22;12519;43.318;21.898;2023-05-03T11:05:30;19.6;64.0
21121;DHT22;12519;43.318;21.898;2023-05-03T11:10:18;19.6;64.0
21121;DHT22;12519;43.318;21.898;2023-05-03T11:14:56;20.0;64.0
21121;DHT22;12519;43.318;21.898;2023-05-03T11:19:33;20.0;64.0
21121;DHT22;12519;43.318;21.898;2023-05-03T11:24:10;20.6;63.0
21121;DHT22;12519;43.318;21.898;2023-05-03T11:28:47;20.6;63.0
21121;DHT22;12519;43.318;21.898;2023-05-03T11:33:24;21.2;62.0
21121;DHT22;12519;43.318;21.898;2023-05-03T11:38:01;21.2;62.0
21121;DHT22;12519;43.318;21.898;2023-05-03T11:42:51;21.3;62.0
21121;DHT22;12519;43.318;21.898;2023-05-03T11:47:33;21.3;62.0
21121;DHT22;12519;43.318;21.898;2023-05-03T11:52:10;21.4;62.0
21121;DHT22;12519;43.318;21.898;2023-05-03T11:56:48;21.4;62.0
21121;DHT22;12519;43.318;21.898;2023-05-03T12:01:32;21.7;62.0
21121;DHT22;12519;43.318;21.898;2023-05-03T12:06:11;21.7;62.0
21121;DHT22;12519;43.318;21.898;2023-05-03T12:10:50;22.0;62.0
21121;DHT22;12519;43.318;21.898;2023-05-03T12:15:31;22.0;62.0
21121;DHT22;12519;43.318;21.898;2023-05-03T12:20:18;22.0;62.0
21121;DHT22;12519;43.318;21.898;2023-05-03T12:25:00;22.2;62.0
21121;DHT22;12519;43.318;21.898;2023-05-03T12:29:36;22.2;62.0
21121;DHT22;12519;43.318;21.898;2023-05-03T12:34:13;22.4;63.0
21121;DHT22;12519;43.318;21.898;2023-05-03T12:38:49;22.4;63.0
21121;DHT22;12519;43.318;21.898;2023-05-03T12:43:26;22.3;62.0
21121;DHT22;12519;43.318;21.898;2023-05-03T12:48:04;22.3;62.0
21121;DHT22;12519;43.318;21.898;2023-05-03T12:52:41;22.2;62.0
21121;DHT22;12519;43.318;21.898;2023-05-03T12:57:17;22.2;62.0
21121;DHT22;12519;43.318;21.898;2023-05-03T13:01:54;22.2;62.0
21121;DHT22;12519;43.318;21.898;2023-05-03T13:06:31;22.2;62.0
21121;DHT22;12519;43.318;21.898;2023-05-03T13:11:08;22.3;62.0
21121;DHT22;12519;43.318;21.898;2023-05-03T13:15:44;22.3;62.0
21121;DHT22;12519;43.318;21.898;2023-05-03T13:20:22;22.3;62.0
21121;DHT22;12519;43.318;21.898;2023-05-03T13:24:58;22.4;62.0
21121;DHT22;12519;43.318;21.898;2023-05-03T13:29:35;22.4;62.0
21121;DHT22;12519;43.318;21.898;2023-05-03T13:34:11;22.4;62.0
21121;DHT22;12519;43.318;21.898;2023-05-03T13:38:49;22.4;62.0
21121;DHT22;12519;43.318;21.898;2023-05-03T13:43:26;22.3;62.0
21121;DHT22;12519;43.318;21.898;2023-05-03T13:48:04;22.3;62.0
21121;DHT22;12519;43.318;21.898;2023-05-03T13:52:42;22.2;62.0
21121;DHT22;12519;43.318;21.898;2023-05-03T13:57:19;22.2;62.0
21121;DHT22;12519;43.318;21.898;2023-05-03T14:01:58;22.2;63.0
21121;DHT22;12519;43.318;21.898;2023-05-03T14:06:35;22.2;63.0
21121;DHT22;12519;43.318;21.898;2023-05-03T14:11:13;22.2;64.0
21121;DHT22;12519;43.318;21.898;2023-05-03T14:15:52;22.2;64.0
21121;DHT22;12519;43.318;21.898;2023-05-03T14:20:28;22.2;64.0
21121;DHT22;12519;43.318;21.898;2023-05-03T14:25:07;21.8;65.0
21121;DHT22;12519;43.318;21.898;2023-05-03T14:29:45;21.8;65.0
21121;DHT22;12519;43.318;21.898;2023-05-03T14:34:22;21.3;66.0
21121;DHT22;12519;43.318;21.898;2023-05-03T14:38:59;21.3;66.0
21121;DHT22;12519;43.318;21.898;2023-05-03T14:43:37;21.3;66.0
21121;DHT22;12519;43.318;21.898;2023-05-03T14:48:15;21.3;66.0
21121;DHT22;12519;43.318;21.898;2023-05-03T15:02:06;20.1;70.0
21121;DHT22;12519;43.318;21.898;2023-05-03T15:06:43;20.1;70.0
21121;DHT22;12519;43.318;21.898;2023-05-03T15:11:21;20.1;70.0
21121;DHT22;12519;43.318;21.898;2023-05-03T15:15:57;20.1;70.0
21121;DHT22;12519;43.318;21.898;2023-05-03T15:20:34;20.1;70.0
21121;DHT22;12519;43.318;21.898;2023-05-03T15:25:11;20.0;70.0
21121;DHT22;12519;43.318;21.898;2023-05-03T15:29:47;20.0;70.0
21121;DHT22;12519;43.318;21.898;2023-05-03T15:34:23;19.8;71.0
21121;DHT22;12519;43.318;21.898;2023-05-03T15:39:00;19.8;71.0
21121;DHT22;12519;43.318;21.898;2023-05-03T15:43:36;19.7;74.0
21121;DHT22;12519;43.318;21.898;2023-05-03T15:48:12;19.7;74.0
21121;DHT22;12519;43.318;21.898;2023-05-03T15:52:49;19.6;77.0
21121;DHT22;12519;43.318;21.898;2023-05-03T15:57:25;19.6;77.0
21121;DHT22;12519;43.318;21.898;2023-05-03T16:02:02;18.7;84.0
21121;DHT22;12519;43.318;21.898;2023-05-03T16:06:38;18.7;84.0
21121;DHT22;12519;43.318;21.898;2023-05-03T16:11:15;17.8;91.0
21121;DHT22;12519;43.318;21.898;2023-05-03T16:15:53;17.8;91.0
21121;DHT22;12519;43.318;21.898;2023-05-03T16:20:30;17.8;91.0
21121;DHT22;12519;43.318;21.898;2023-05-03T16:25:08;18.0;92.0
21121;DHT22;12519;43.318;21.898;2023-05-03T16:29:45;18.0;92.0
21121;DHT22;12519;43.318;21.898;2023-05-03T16:34:22;18.1;93.0
21121;DHT22;12519;43.318;21.898;2023-05-03T16:38:59;18.1;93.0
21121;DHT22;12519;43.318;21.898;2023-05-03T16:43:35;17.8;95.0
21121;DHT22;12519;43.318;21.898;2023-05-03T16:48:12;17.8;95.0
21121;DHT22;12519;43.318;21.898;2023-05-03T16:52:48;17.4;97.0
21121;DHT22;12519;43.318;21.898;2023-05-03T16:57:25;17.4;97.0
21121;DHT22;12519;43.318;21.898;2023-05-03T17:02:01;17.0;99.0
21121;DHT22;12519;43.318;21.898;2023-05-03T17:06:37;17.0;99.0
21121;DHT22;12519;43.318;21.898;2023-05-03T17:11:14;16.5;100.0
21121;DHT22;12519;43.318;21.898;2023-05-03T17:15:51;16.5;100.0
21121;DHT22;12519;43.318;21.898;2023-05-03T17:20:28;16.5;100.0
21121;DHT22;12519;43.318;21.898;2023-05-03T17:25:08;16.4;100.0
21121;DHT22;12519;43.318;21.898;2023-05-03T17:29:46;16.4;100.0
21121;DHT22;12519;43.318;21.898;2023-05-03T17:34:23;16.4;100.0
21121;DHT22;12519;43.318;21.898;2023-05-03T17:38:59;16.4;100.0
21121;DHT22;12519;43.318;21.898;2023-05-03T17:43:38;16.6;100.0
21121;DHT22;12519;43.318;21.898;2023-05-03T17:48:15;16.6;100.0
21121;DHT22;12519;43.318;21.898;2023-05-03T17:52:53;16.8;100.0
21121;DHT22;12519;43.318;21.898;2023-05-03T17:57:30;16.8;100.0
21121;DHT22;12519;43.318;21.898;2023-05-03T18:02:07;17.0;100.0
21121;DHT22;12519;43.318;21.898;2023-05-03T18:06:43;17.0;100.0
21121;DHT22;12519;43.318;21.898;2023-05-03T18:11:20;17.3;100.0
21121;DHT22;12519;43.318;21.898;2023-05-03T18:15:58;17.3;100.0
21121;DHT22;12519;43.318;21.898;2023-05-03T18:20:34;17.3;100.0
21121;DHT22;12519;43.318;21.898;2023-05-03T18:25:10;17.4;100.0
21121;DHT22;12519;43.318;21.898;2023-05-03T18:29:47;17.4;100.0
21121;DHT22;12519;43.318;21.898;2023-05-03T18:34:23;17.4;100.0
21121;DHT22;12519;43.318;21.898;2023-05-03T18:39:00;17.4;100.0
21121;DHT22;12519;43.318;21.898;2023-05-03T18:43:38;17.0;100.0
21121;DHT22;12519;43.318;21.898;2023-05-03T18:48:15;17.0;100.0
21121;DHT22;12519;43.318;21.898;2023-05-03T18:52:52;16.7;100.0
21121;DHT22;12519;43.318;21.898;2023-05-03T18:57:28;16.7;100.0
21121;DHT22;12519;43.318;21.898;2023-05-03T19:02:05;16.5;100.0
21121;DHT22;12519;43.318;21.898;2023-05-03T19:06:43;16.5;100.0
21121;DHT22;12519;43.318;21.898;2023-05-03T19:11:19;16.3;100.0
21121;DHT22;12519;43.318;21.898;2023-05-03T19:15:56;16.3;100.0
21121;DHT22;12519;43.318;21.898;2023-05-03T19:20:33;16.3;100.0
21121;DHT22;12519;43.318;21.898;2023-05-03T19:25:09;16.5;100.0
21121;DHT22;12519;43.318;21.898;2023-05-03T19:29:46;16.5;100.0
21121;DHT22;12519;43.318;21.898;2023-05-03T19:34:23;16.7;100.0
21121;DHT22;12519;43.318;21.898;2023-05-03T19:38:59;16.7;100.0
21121;DHT22;12519;43.318;21.898;2023-05-03T19:43:36;16.8;100.0
21121;DHT22;12519;43.318;21.898;2023-05-03T19:48:12;16.8;100.0
21121;DHT22;12519;43.318;21.898;2023-05-03T19:52:51;16.9;100.0
21121;DHT22;12519;43.318;21.898;2023-05-03T19:57:27;16.9;100.0
21121;DHT22;12519;43.318;21.898;2023-05-03T20:02:05;17.0;99.0
21121;DHT22;12519;43.318;21.898;2023-05-03T20:06:42;17.0;99.0
21121;DHT22;12519;43.318;21.898;2023-05-03T20:11:18;17.0;99.0
21121;DHT22;12519;43.318;21.898;2023-05-03T20:15:55;17.2;98.0
21121;DHT22;12519;43.318;21.898;2023-05-03T20:20:33;17.2;98.0
21121;DHT22;12519;43.318;21.898;2023-05-03T20:25:09;17.0;98.0
21121;DHT22;12519;43.318;21.898;2023-05-03T20:29:46;17.0;98.0
21121;DHT22;12519;43.318;21.898;2023-05-03T20:34:23;16.9;99.0
21121;DHT22;12519;43.318;21.898;2023-05-03T20:38:59;16.9;99.0
21121;DHT22;12519;43.318;21.898;2023-05-03T20:43:36;16.8;98.0
21121;DHT22;12519;43.318;21.898;2023-05-03T20:48:13;16.8;98.0
21121;DHT22;12519;43.318;21.898;2023-05-03T20:52:49;16.8;98.0
21121;DHT22;12519;43.318;21.898;2023-05-03T20:57:25;16.8;98.0
21121;DHT22;12519;43.318;21.898;2023-05-03T21:02:03;16.8;96.0
21121;DHT22;12519;43.318;21.898;2023-05-03T21:06:39;16.8;96.0
21121;DHT22;12519;43.318;21.898;2023-05-03T21:11:15;16.8;96.0
21121;DHT22;12519;43.318;21.898;2023-05-03T21:15:53;16.7;96.0
21121;DHT22;12519;43.318;21.898;2023-05-03T21:20:30;16.7;96.0
21121;DHT22;12519;43.318;21.898;2023-05-03T21:25:09;16.6;96.0
21121;DHT22;12519;43.318;21.898;2023-05-03T21:29:45;16.6;96.0
21121;DHT22;12519;43.318;21.898;2023-05-03T21:34:22;16.6;96.0
21121;DHT22;12519;43.318;21.898;2023-05-03T21:38:59;16.6;96.0
21121;DHT22;12519;43.318;21.898;2023-05-03T21:43:36;16.6;96.0
21121;DHT22;12519;43.318;21.898;2023-05-03T21:48:13;16.6;96.0
21121;DHT22;12519;43.318;21.898;2023-05-03T21:52:49;16.5;96.0
21121;DHT22;12519;43.318;21.898;2023-05-03T21:57:27;16.5;96.0
21121;DHT22;12519;43.318;21.898;2023-05-03T22:02:03;16.5;95.0
21121;DHT22;12519;43.318;21.898;2023-05-03T22:06:40;16.5;95.0
21121;DHT22;12519;43.318;21.898;2023-05-03T22:11:17;16.5;95.0
21121;DHT22;12519;43.318;21.898;2023-05-03T22:15:53;16.5;95.0
21121;DHT22;12519;43.318;21.898;2023-05-03T22:20:30;16.5;95.0
21121;DHT22;12519;43.318;21.898;2023-05-03T22:25:08;16.7;93.0
21121;DHT22;12519;43.318;21.898;2023-05-03T22:29:56;16.7;93.0
21121;DHT22;12519;43.318;21.898;2023-05-03T22:34:33;16.9;92.0
21121;DHT22;12519;43.318;21.898;2023-05-03T22:39:10;16.9;92.0
21121;DHT22;12519;43.318;21.898;2023-05-03T22:43:47;16.7;92.0
21121;DHT22;12519;43.318;21.898;2023-05-03T22:48:24;16.7;92.0
21121;DHT22;12519;43.318;21.898;2023-05-03T22:53:01;16.5;92.0
21121;DHT22;12519;43.318;21.898;2023-05-03T22:57:37;16.5;92.0
21121;DHT22;12519;43.318;21.898;2023-05-03T23:02:14;16.5;92.0
21121;DHT22;12519;43.318;21.898;2023-05-03T23:06:52;16.5;92.0
21121;DHT22;12519;43.318;21.898;2023-05-03T23:11:29;16.5;92.0
21121;DHT22;12519;43.318;21.898;2023-05-03T23:16:07;16.5;92.0
21121;DHT22;12519;43.318;21.898;2023-05-03T23:20:44;16.5;92.0
21121;DHT22;12519;43.318;21.898;2023-05-03T23:25:22;16.4;92.0
21121;DHT22;12519;43.318;21.898;2023-05-03T23:29:59;16.4;92.0
21121;DHT22;12519;43.318;21.898;2023-05-03T23:34:35;16.3;92.0
21121;DHT22;12519;43.318;21.898;2023-05-03T23:39:11;16.3;92.0
21121;DHT22;12519;43.318;21.898;2023-05-03T23:43:48;16.2;92.0
21121;DHT22;12519;43.318;21.898;2023-05-03T23:48:24;16.2;92.0
21121;DHT22;12519;43.318;21.898;2023-05-03T23:53:01;16.2;92.0
21121;DHT22;12519;43.318;21.898;2023-05-03T23:57:37;16.2;92.0
